sensor_id;sensor_type;location;lat;lon;timestamp;pressure;altitude;pressure_sealevel;temperature;humidity
40730;BME280;26418;50.070;8.436;2023-11-21T00:02:21;99312.06;;;8.85;100.00
40730;BME280;26418;50.070;8.436;2023-11-21T00:04:48;99317.13;;;8.87;100.00
40730;BME280;26418;50.070;8.436;2023-11-21T00:07:14;99314.44;;;8.87;100.00
40730;BME280;26418;50.070;8.436;2023-11-21T00:09:40;99312.56;;;8.87;100.00
40730;BME280;26418;50.070;8.436;2023-11-21T00:12:08;99307.44;;;8.86;100.00
40730;BME280;26418;50.070;8.436;2023-11-21T00:14:37;99299.34;;;8.86;100.00
40730;BME280;26418;50.070;8.436;2023-11-21T00:17:04;99304.16;;;8.89;100.00
40730;BME280;26418;50.070;8.436;2023-11-21T00:19:31;99303.06;;;8.90;100.00
40730;BME280;26418;50.070;8.436;2023-11-21T00:21:56;99301.78;;;8.87;100.00
40730;BME280;26418;50.070;8.436;2023-11-21T00:24:24;99295.56;;;8.87;100.00
40730;BME280;26418;50.070;8.436;2023-11-21T00:26:50;99297.78;;;8.85;100.00
40730;BME280;26418;50.070;8.436;2023-11-21T00:29:16;99299.97;;;8.83;100.00
40730;BME280;26418;50.070;8.436;2023-11-21T00:31:44;99303.47;;;8.83;100.00
40730;BME280;26418;50.070;8.436;2023-11-21T00:34:11;99308.06;;;8.83;100.00
40730;BME280;26418;50.070;8.436;2023-11-21T00:36:37;99299.97;;;8.83;100.00
40730;BME280;26418;50.070;8.436;2023-11-21T00:39:03;99308.06;;;8.83;100.00
40730;BME280;26418;50.070;8.436;2023-11-21T00:41:29;99301.06;;;8.81;100.00
40730;BME280;26418;50.070;8.436;2023-11-21T00:43:54;99305.97;;;8.79;100.00
40730;BME280;26418;50.070;8.436;2023-11-21T00:46:20;99301.69;;;8.78;100.00
40730;BME280;26418;50.070;8.436;2023-11-21T00:48:46;99300.38;;;8.76;100.00
40730;BME280;26418;50.070;8.436;2023-11-21T00:51:12;99308.97;;;8.78;100.00
40730;BME280;26418;50.070;8.436;2023-11-21T00:53:37;99300.69;;;8.74;100.00
40730;BME280;26418;50.070;8.436;2023-11-21T00:56:03;99303.09;;;8.76;100.00
40730;BME280;26418;50.070;8.436;2023-11-21T00:58:28;99308.97;;;8.78;100.00
40730;BME280;26418;50.070;8.436;2023-11-21T01:00:55;99301.81;;;8.73;100.00
40730;BME280;26418;50.070;8.436;2023-11-21T01:03:21;99306.41;;;8.73;100.00
40730;BME280;26418;50.070;8.436;2023-11-21T01:05:47;99308.47;;;8.76;100.00
40730;BME280;26418;50.070;8.436;2023-11-21T01:08:15;99313.09;;;8.75;100.00
40730;BME280;26418;50.070;8.436;2023-11-21T01:10:40;99315.28;;;8.73;100.00
40730;BME280;26418;50.070;8.436;2023-11-21T01:13:06;99314.59;;;8.68;100.00
40730;BME280;26418;50.070;8.436;2023-11-21T01:15:33;99317.91;;;8.64;100.00
40730;BME280;26418;50.070;8.436;2023-11-21T01:17:58;99310.91;;;8.63;100.00
40730;BME280;26418;50.070;8.436;2023-11-21T01:20:24;99317.41;;;8.62;100.00
40730;BME280;26418;50.070;8.436;2023-11-21T01:22:50;99319.47;;;8.65;100.00
40730;BME280;26418;50.070;8.436;2023-11-21T01:25:15;99320.28;;;8.66;100.00
40730;BME280;26418;50.070;8.436;2023-11-21T01:27:42;99328.88;;;8.68;100.00
40730;BME280;26418;50.070;8.436;2023-11-21T01:30:08;99330.16;;;8.71;100.00
40730;BME280;26418;50.070;8.436;2023-11-21T01:32:36;99335.25;;;8.72;100.00
40730;BME280;26418;50.070;8.436;2023-11-21T01:35:02;99336.84;;;8.73;100.00
40730;BME280;26418;50.070;8.436;2023-11-21T01:37:27;99328.75;;;8.73;100.00
40730;BME280;26418;50.070;8.436;2023-11-21T01:39:56;99336.84;;;8.73;100.00
40730;BME280;26418;50.070;8.436;2023-11-21T01:42:22;99344.34;;;8.76;100.00
40730;BME280;26418;50.070;8.436;2023-11-21T01:44:47;99344.63;;;8.75;100.00
40730;BME280;26418;50.070;8.436;2023-11-21T01:47:13;99332.34;;;8.69;100.00
40730;BME280;26418;50.070;8.436;2023-11-21T01:49:39;99344.34;;;8.76;100.00
40730;BME280;26418;50.070;8.436;2023-11-21T01:52:06;99341.66;;;8.76;100.00
40730;BME280;26418;50.070;8.436;2023-11-21T01:54:32;99349.63;;;8.81;100.00
40730;BME280;26418;50.070;8.436;2023-11-21T01:57:00;99338.31;;;8.79;100.00
40730;BME280;26418;50.070;8.436;2023-11-21T01:59:34;99340.75;;;8.81;100.00
40730;BME280;26418;50.070;8.436;2023-11-21T02:02:00;99347.31;;;8.89;100.00
40730;BME280;26418;50.070;8.436;2023-11-21T02:04:25;99345.69;;;8.88;100.00
40730;BME280;26418;50.070;8.436;2023-11-21T02:06:51;99332.94;;;8.79;100.00
40730;BME280;26418;50.070;8.436;2023-11-21T02:09:17;99333.75;;;8.80;100.00
40730;BME280;26418;50.070;8.436;2023-11-21T02:11:43;99348.53;;;8.83;100.00
40730;BME280;26418;50.070;8.436;2023-11-21T02:14:10;99356.59;;;8.83;100.00
40730;BME280;26418;50.070;8.436;2023-11-21T02:16:36;99341.94;;;8.75;100.00
40730;BME280;26418;50.070;8.436;2023-11-21T02:19:04;99349.81;;;8.71;100.00
40730;BME280;26418;50.070;8.436;2023-11-21T02:21:34;99346.16;;;8.67;100.00
40730;BME280;26418;50.070;8.436;2023-11-21T02:24:01;99350.53;;;8.63;100.00
40730;BME280;26418;50.070;8.436;2023-11-21T02:26:26;99347.34;;;8.61;100.00
40730;BME280;26418;50.070;8.436;2023-11-21T02:28:52;99334.56;;;8.53;100.00
40730;BME280;26418;50.070;8.436;2023-11-21T02:31:18;99327.16;;;8.44;100.00
40730;BME280;26418;50.070;8.436;2023-11-21T02:33:44;99334.69;;;8.47;100.00
40730;BME280;26418;50.070;8.436;2023-11-21T02:36:09;99347.06;;;8.48;100.00
40730;BME280;26418;50.070;8.436;2023-11-21T02:38:35;99346.53;;;8.46;100.00
40730;BME280;26418;50.070;8.436;2023-11-21T02:41:00;99349.84;;;8.43;100.00
40730;BME280;26418;50.070;8.436;2023-11-21T02:43:26;99358.50;;;8.40;100.00
40730;BME280;26418;50.070;8.436;2023-11-21T02:45:52;99362.63;;;8.52;100.00
40730;BME280;26418;50.070;8.436;2023-11-21T02:48:17;99344.88;;;8.51;100.00
40730;BME280;26418;50.070;8.436;2023-11-21T02:50:43;99359.84;;;8.57;100.00
40730;BME280;26418;50.070;8.436;2023-11-21T02:53:09;99359.00;;;8.56;100.00
40730;BME280;26418;50.070;8.436;2023-11-21T02:55:36;99342.75;;;8.47;100.00
40730;BME280;26418;50.070;8.436;2023-11-21T02:58:02;99340.84;;;8.48;100.00
40730;BME280;26418;50.070;8.436;2023-11-21T03:00:31;99350.06;;;8.47;100.00
40730;BME280;26418;50.070;8.436;2023-11-21T03:02:57;99350.84;;;8.47;100.00
40730;BME280;26418;50.070;8.436;2023-11-21T03:05:22;99343.63;;;8.43;100.00
40730;BME280;26418;50.070;8.436;2023-11-21T03:07:48;99353.75;;;8.51;100.00
40730;BME280;26418;50.070;8.436;2023-11-21T03:10:13;99356.44;;;8.51;100.00
40730;BME280;26418;50.070;8.436;2023-11-21T03:12:39;99352.75;;;8.47;100.00
40730;BME280;26418;50.070;8.436;2023-11-21T03:15:06;99348.44;;;8.46;100.00
40730;BME280;26418;50.070;8.436;2023-11-21T03:17:32;99344.06;;;8.50;100.00
40730;BME280;26418;50.070;8.436;2023-11-21T03:19:59;99341.34;;;8.50;100.00
40730;BME280;26418;50.070;8.436;2023-11-21T03:22:25;99355.84;;;8.54;100.00
40730;BME280;26418;50.070;8.436;2023-11-21T03:24:52;99360.41;;;8.54;100.00
40730;BME280;26418;50.070;8.436;2023-11-21T03:27:18;99363.13;;;8.54;100.00
40730;BME280;26418;50.070;8.436;2023-11-21T03:29:44;99377.28;;;8.59;100.00
40730;BME280;26418;50.070;8.436;2023-11-21T03:32:12;99365.22;;;8.57;100.00
40730;BME280;26418;50.070;8.436;2023-11-21T03:34:53;99372.50;;;8.56;100.00
40730;BME280;26418;50.070;8.436;2023-11-21T03:37:19;99380.56;;;8.56;100.00
40730;BME280;26418;50.070;8.436;2023-11-21T03:39:46;99383.78;;;8.58;100.00
40730;BME280;26418;50.070;8.436;2023-11-21T03:42:12;99389.88;;;8.64;100.00
40730;BME280;26418;50.070;8.436;2023-11-21T03:44:37;99393.78;;;8.58;100.00
40730;BME280;26418;50.070;8.436;2023-11-21T03:47:03;99392.06;;;8.62;100.00
40730;BME280;26418;50.070;8.436;2023-11-21T03:49:29;99389.28;;;8.53;100.00
40730;BME280;26418;50.070;8.436;2023-11-21T03:51:55;99393.16;;;8.61;100.00
40730;BME280;26418;50.070;8.436;2023-11-21T03:54:21;99402.25;;;8.65;100.00
40730;BME280;26418;50.070;8.436;2023-11-21T03:56:47;99392.38;;;8.60;100.00
40730;BME280;26418;50.070;8.436;2023-11-21T03:59:12;99394.88;;;8.57;100.00
40730;BME280;26418;50.070;8.436;2023-11-21T04:01:38;99400.66;;;8.64;100.00
40730;BME280;26418;50.070;8.436;2023-11-21T04:04:04;99397.75;;;8.60;100.00
40730;BME280;26418;50.070;8.436;2023-11-21T04:06:29;99403.66;;;8.62;100.00
40730;BME280;26418;50.070;8.436;2023-11-21T04:08:55;99402.44;;;8.55;100.00
40730;BME280;26418;50.070;8.436;2023-11-21T04:11:20;99405.44;;;8.53;100.00
40730;BME280;26418;50.070;8.436;2023-11-21T04:13:46;99406.16;;;8.59;100.00
40730;BME280;26418;50.070;8.436;2023-11-21T04:16:12;99410.94;;;8.62;100.00
40730;BME280;26418;50.070;8.436;2023-11-21T04:18:38;99409.13;;;8.57;100.00
40730;BME280;26418;50.070;8.436;2023-11-21T04:21:05;99408.47;;;8.52;100.00
40730;BME280;26418;50.070;8.436;2023-11-21T04:23:31;99411.44;;;8.50;100.00
40730;BME280;26418;50.070;8.436;2023-11-21T04:26:00;99418.94;;;8.53;100.00
40730;BME280;26418;50.070;8.436;2023-11-21T04:28:27;99420.81;;;8.53;100.00
40730;BME280;26418;50.070;8.436;2023-11-21T04:30:53;99420.59;;;8.49;100.00
40730;BME280;26418;50.070;8.436;2023-11-21T04:33:19;99428.41;;;8.51;100.00
40730;BME280;26418;50.070;8.436;2023-11-21T04:35:44;99424.97;;;8.45;100.00
40730;BME280;26418;50.070;8.436;2023-11-21T04:38:10;99431.38;;;8.49;100.00
40730;BME280;26418;50.070;8.436;2023-11-21T04:40:36;99431.69;;;8.47;100.00
40730;BME280;26418;50.070;8.436;2023-11-21T04:43:01;99443.50;;;8.52;100.00
40730;BME280;26418;50.070;8.436;2023-11-21T04:45:27;99436.50;;;8.51;100.00
40730;BME280;26418;50.070;8.436;2023-11-21T04:47:52;99455.84;;;8.53;100.00
40730;BME280;26418;50.070;8.436;2023-11-21T04:50:18;99438.88;;;8.52;100.00
40730;BME280;26418;50.070;8.436;2023-11-21T04:52:44;99455.06;;;8.52;100.00
40730;BME280;26418;50.070;8.436;2023-11-21T04:55:10;99452.66;;;8.51;100.00
40730;BME280;26418;50.070;8.436;2023-11-21T04:57:36;99447.06;;;8.47;100.00
40730;BME280;26418;50.070;8.436;2023-11-21T05:00:03;99469.94;;;8.49;100.00
40730;BME280;26418;50.070;8.436;2023-11-21T05:02:32;99465.63;;;8.48;100.00
40730;BME280;26418;50.070;8.436;2023-11-21T05:04:59;99465.72;;;8.43;100.00
40730;BME280;26418;50.070;8.436;2023-11-21T05:07:25;99469.78;;;8.41;100.00
40730;BME280;26418;50.070;8.436;2023-11-21T05:09:54;99470.06;;;8.39;100.00
40730;BME280;26418;50.070;8.436;2023-11-21T05:12:21;99482.47;;;8.40;100.00
40730;BME280;26418;50.070;8.436;2023-11-21T05:14:48;99480.75;;;8.44;100.00
40730;BME280;26418;50.070;8.436;2023-11-21T05:17:14;99477.59;;;8.42;100.00
40730;BME280;26418;50.070;8.436;2023-11-21T05:19:40;99486.16;;;8.44;100.00
40730;BME280;26418;50.070;8.436;2023-11-21T05:22:06;99488.84;;;8.44;100.00
40730;BME280;26418;50.070;8.436;2023-11-21T05:24:33;99488.38;;;8.42;100.00
40730;BME280;26418;50.070;8.436;2023-11-21T05:26:58;99491.63;;;8.39;100.00
40730;BME280;26418;50.070;8.436;2023-11-21T05:29:24;99492.53;;;8.34;100.00
40730;BME280;26418;50.070;8.436;2023-11-21T05:31:51;99496.31;;;8.33;100.00
40730;BME280;26418;50.070;8.436;2023-11-21T05:34:18;99493.34;;;8.35;100.00
40730;BME280;26418;50.070;8.436;2023-11-21T05:36:43;99496.13;;;8.44;100.00
40730;BME280;26418;50.070;8.436;2023-11-21T05:39:11;99498.94;;;8.39;100.00
40730;BME280;26418;50.070;8.436;2023-11-21T05:41:37;99510.50;;;8.39;100.00
40730;BME280;26418;50.070;8.436;2023-11-21T05:44:02;99508.38;;;8.36;100.00
40730;BME280;26418;50.070;8.436;2023-11-21T05:46:28;99496.91;;;8.30;100.00
40730;BME280;26418;50.070;8.436;2023-11-21T05:48:53;99512.19;;;8.35;100.00
40730;BME280;26418;50.070;8.436;2023-11-21T05:51:20;99509.50;;;8.35;100.00
40730;BME280;26418;50.070;8.436;2023-11-21T05:53:45;99507.91;;;8.34;100.00
40730;BME280;26418;50.070;8.436;2023-11-21T05:56:12;99509.78;;;8.33;100.00
40730;BME280;26418;50.070;8.436;2023-11-21T05:58:39;99513.56;;;8.32;100.00
40730;BME280;26418;50.070;8.436;2023-11-21T06:01:05;99514.16;;;8.29;100.00
40730;BME280;26418;50.070;8.436;2023-11-21T06:03:33;99518.75;;;8.29;100.00
40730;BME280;26418;50.070;8.436;2023-11-21T06:05:58;99521.22;;;8.25;100.00
40730;BME280;26418;50.070;8.436;2023-11-21T06:08:24;99523.41;;;8.23;100.00
40730;BME280;26418;50.070;8.436;2023-11-21T06:10:49;99518.91;;;8.18;100.00
40730;BME280;26418;50.070;8.436;2023-11-21T06:13:15;99526.94;;;8.24;100.00
40730;BME280;26418;50.070;8.436;2023-11-21T06:15:41;99529.69;;;8.18;100.00
40730;BME280;26418;50.070;8.436;2023-11-21T06:18:07;99538.56;;;8.19;100.00
40730;BME280;26418;50.070;8.436;2023-11-21T06:20:35;99545.47;;;8.25;100.00
40730;BME280;26418;50.070;8.436;2023-11-21T06:23:02;99553.28;;;8.27;100.00
40730;BME280;26418;50.070;8.436;2023-11-21T06:25:29;99556.56;;;8.24;100.00
40730;BME280;26418;50.070;8.436;2023-11-21T06:27:54;99558.44;;;8.23;100.00
40730;BME280;26418;50.070;8.436;2023-11-21T06:30:20;99568.13;;;8.24;100.00
40730;BME280;26418;50.070;8.436;2023-11-21T06:32:47;99573.72;;;8.28;100.00
40730;BME280;26418;50.070;8.436;2023-11-21T06:35:12;99574.22;;;8.30;100.00
40730;BME280;26418;50.070;8.436;2023-11-21T06:37:38;99577.75;;;8.30;100.00
40730;BME280;26418;50.070;8.436;2023-11-21T06:40:05;99570.34;;;8.36;100.00
40730;BME280;26418;50.070;8.436;2023-11-21T06:42:31;99570.81;;;8.43;100.00
40730;BME280;26418;50.070;8.436;2023-11-21T06:44:59;99586.63;;;8.50;100.00
40730;BME280;26418;50.070;8.436;2023-11-21T06:47:25;99585.34;;;8.61;100.00
40730;BME280;26418;50.070;8.436;2023-11-21T06:49:52;99588.31;;;8.79;100.00
40730;BME280;26418;50.070;8.436;2023-11-21T06:52:18;99584.31;;;9.04;100.00
40730;BME280;26418;50.070;8.436;2023-11-21T06:54:44;99576.25;;;9.18;100.00
40730;BME280;26418;50.070;8.436;2023-11-21T06:57:10;99597.66;;;9.42;100.00
40730;BME280;26418;50.070;8.436;2023-11-21T06:59:36;99604.16;;;9.55;100.00
40730;BME280;26418;50.070;8.436;2023-11-21T07:02:02;99614.03;;;9.60;100.00
40730;BME280;26418;50.070;8.436;2023-11-21T07:04:27;99614.13;;;9.55;100.00
40730;BME280;26418;50.070;8.436;2023-11-21T07:06:53;99613.94;;;9.51;100.00
40730;BME280;26418;50.070;8.436;2023-11-21T07:09:19;99619.66;;;9.50;100.00
40730;BME280;26418;50.070;8.436;2023-11-21T07:11:48;99620.66;;;9.40;100.00
40730;BME280;26418;50.070;8.436;2023-11-21T07:14:14;99634.03;;;9.31;100.00
40730;BME280;26418;50.070;8.436;2023-11-21T07:16:40;99628.81;;;9.21;100.00
40730;BME280;26418;50.070;8.436;2023-11-21T07:19:06;99635.03;;;9.35;100.00
40730;BME280;26418;50.070;8.436;2023-11-21T07:21:35;99639.03;;;9.38;100.00
40730;BME280;26418;50.070;8.436;2023-11-21T07:24:04;99643.53;;;9.28;100.00
40730;BME280;26418;50.070;8.436;2023-11-21T07:26:31;99647.22;;;9.19;100.00
40730;BME280;26418;50.070;8.436;2023-11-21T07:28:59;99655.91;;;9.16;100.00
40730;BME280;26418;50.070;8.436;2023-11-21T07:31:24;99646.00;;;9.11;100.00
40730;BME280;26418;50.070;8.436;2023-11-21T07:33:50;99641.19;;;9.08;100.00
40730;BME280;26418;50.070;8.436;2023-11-21T07:36:17;99650.47;;;9.02;100.00
40730;BME280;26418;50.070;8.436;2023-11-21T07:38:48;99658.06;;;9.00;100.00
40730;BME280;26418;50.070;8.436;2023-11-21T07:41:14;99651.34;;;8.97;100.00
40730;BME280;26418;50.070;8.436;2023-11-21T07:43:41;99655.88;;;9.02;100.00
40730;BME280;26418;50.070;8.436;2023-11-21T07:46:06;99657.69;;;9.06;100.00
40730;BME280;26418;50.070;8.436;2023-11-21T07:48:34;99653.97;;;9.02;100.00
40730;BME280;26418;50.070;8.436;2023-11-21T07:51:00;99661.41;;;9.10;100.00
40730;BME280;26418;50.070;8.436;2023-11-21T07:53:26;99663.47;;;9.13;100.00
40730;BME280;26418;50.070;8.436;2023-11-21T07:56:13;99671.00;;;9.17;100.00
40730;BME280;26418;50.070;8.436;2023-11-21T07:58:38;99680.50;;;9.14;100.00
40730;BME280;26418;50.070;8.436;2023-11-21T08:01:04;99679.09;;;9.17;100.00
40730;BME280;26418;50.070;8.436;2023-11-21T08:03:30;99684.47;;;9.17;100.00
40730;BME280;26418;50.070;8.436;2023-11-21T08:05:57;99678.47;;;9.20;100.00
40730;BME280;26418;50.070;8.436;2023-11-21T08:08:23;99686.00;;;9.23;100.00
40730;BME280;26418;50.070;8.436;2023-11-21T08:10:49;99677.69;;;9.19;100.00
40730;BME280;26418;50.070;8.436;2023-11-21T08:13:27;99685.19;;;9.22;100.00
40730;BME280;26418;50.070;8.436;2023-11-21T08:15:59;99696.41;;;9.30;100.00
40730;BME280;26418;50.070;8.436;2023-11-21T08:18:28;99689.91;;;9.31;100.00
40730;BME280;26418;50.070;8.436;2023-11-21T08:20:57;99698.41;;;9.38;100.00
40730;BME280;26418;50.070;8.436;2023-11-21T08:23:22;99694.63;;;9.39;100.00
40730;BME280;26418;50.070;8.436;2023-11-21T08:25:54;99696.50;;;9.38;100.00
40730;BME280;26418;50.070;8.436;2023-11-21T08:28:21;99698.69;;;9.36;100.00
40730;BME280;26418;50.070;8.436;2023-11-21T08:30:52;99700.22;;;9.42;100.00
40730;BME280;26418;50.070;8.436;2023-11-21T08:33:19;99710.59;;;9.49;100.00
40730;BME280;26418;50.070;8.436;2023-11-21T08:35:45;99714.13;;;9.50;100.00
40730;BME280;26418;50.070;8.436;2023-11-21T08:38:11;99711.72;;;9.48;100.00
40730;BME280;26418;50.070;8.436;2023-11-21T08:40:37;99717.81;;;9.54;100.00
40730;BME280;26418;50.070;8.436;2023-11-21T08:43:03;99715.94;;;9.54;100.00
40730;BME280;26418;50.070;8.436;2023-11-21T08:45:30;99719.63;;;9.58;100.00
40730;BME280;26418;50.070;8.436;2023-11-21T08:47:56;99722.03;;;9.60;100.00
40730;BME280;26418;50.070;8.436;2023-11-21T08:50:21;99723.84;;;9.65;100.00
40730;BME280;26418;50.070;8.436;2023-11-21T08:52:48;99729.66;;;9.72;100.00
40730;BME280;26418;50.070;8.436;2023-11-21T08:55:13;99731.25;;;9.73;100.00
40730;BME280;26418;50.070;8.436;2023-11-21T08:57:39;99731.25;;;9.73;100.00
40730;BME280;26418;50.070;8.436;2023-11-21T09:00:07;99744.84;;;9.82;100.00
40730;BME280;26418;50.070;8.436;2023-11-21T09:02:37;99748.66;;;9.95;100.00
40730;BME280;26418;50.070;8.436;2023-11-21T09:05:06;99746.66;;;10.00;100.00
40730;BME280;26418;50.070;8.436;2023-11-21T09:07:32;99735.66;;;9.97;100.00
40730;BME280;26418;50.070;8.436;2023-11-21T09:09:57;99756.25;;;10.06;100.00
40730;BME280;26418;50.070;8.436;2023-11-21T09:12:24;99753.44;;;10.12;100.00
40730;BME280;26418;50.070;8.436;2023-11-21T09:14:52;99760.19;;;10.14;100.00
40730;BME280;26418;50.070;8.436;2023-11-21T09:17:18;99759.28;;;10.19;99.94
40730;BME280;26418;50.070;8.436;2023-11-21T09:19:44;99770.56;;;10.21;100.00
40730;BME280;26418;50.070;8.436;2023-11-21T09:22:12;99766.47;;;10.23;97.01
40730;BME280;26418;50.070;8.436;2023-11-21T09:24:38;99770.28;;;10.22;97.14
40730;BME280;26418;50.070;8.436;2023-11-21T09:27:04;99777.28;;;10.23;97.86
40730;BME280;26418;50.070;8.436;2023-11-21T09:29:30;99776.66;;;10.27;97.56
40730;BME280;26418;50.070;8.436;2023-11-21T09:31:57;99784.97;;;10.30;97.11
40730;BME280;26418;50.070;8.436;2023-11-21T09:34:26;99779.88;;;10.29;96.39
40730;BME280;26418;50.070;8.436;2023-11-21T09:36:52;99772.28;;;10.31;96.62
40730;BME280;26418;50.070;8.436;2023-11-21T09:39:18;99786.78;;;10.35;96.66
40730;BME280;26418;50.070;8.436;2023-11-21T09:41:49;99783.38;;;10.43;96.86
40730;BME280;26418;50.070;8.436;2023-11-21T09:44:18;99784.69;;;10.46;96.54
40730;BME280;26418;50.070;8.436;2023-11-21T09:46:48;99791.78;;;10.56;96.96
40730;BME280;26418;50.070;8.436;2023-11-21T09:49:15;99795.47;;;10.60;96.59
40730;BME280;26418;50.070;8.436;2023-11-21T09:51:43;99794.47;;;10.69;96.77
40730;BME280;26418;50.070;8.436;2023-11-21T09:54:10;99795.78;;;10.72;95.20
40730;BME280;26418;50.070;8.436;2023-11-21T09:56:39;99791.66;;;10.75;92.87
40730;BME280;26418;50.070;8.436;2023-11-21T09:59:05;99798.34;;;10.77;91.79
40730;BME280;26418;50.070;8.436;2023-11-21T10:01:35;99795.78;;;10.72;90.67
40730;BME280;26418;50.070;8.436;2023-11-21T10:04:02;99797.94;;;10.84;91.14
40730;BME280;26418;50.070;8.436;2023-11-21T10:06:28;99790.88;;;10.74;84.00
40730;BME280;26418;50.070;8.436;2023-11-21T10:08:56;99808.97;;;10.74;84.72
40730;BME280;26418;50.070;8.436;2023-11-21T10:11:25;99812.91;;;10.67;84.86
40730;BME280;26418;50.070;8.436;2023-11-21T10:13:54;99812.91;;;10.67;85.62
40730;BME280;26418;50.070;8.436;2023-11-21T10:16:25;99813.41;;;10.69;85.93
40730;BME280;26418;50.070;8.436;2023-11-21T10:18:52;99823.50;;;10.78;84.96
40730;BME280;26418;50.070;8.436;2023-11-21T10:21:21;99818.38;;;10.76;84.67
40730;BME280;26418;50.070;8.436;2023-11-21T10:23:47;99822.09;;;10.80;85.48
40730;BME280;26418;50.070;8.436;2023-11-21T10:26:12;99831.88;;;10.90;86.57
40730;BME280;26418;50.070;8.436;2023-11-21T10:28:58;99832.75;;;10.99;86.87
40730;BME280;26418;50.070;8.436;2023-11-21T10:31:26;99836.53;;;11.12;86.84
40730;BME280;26418;50.070;8.436;2023-11-21T10:33:52;99827.81;;;11.15;85.25
40730;BME280;26418;50.070;8.436;2023-11-21T10:36:26;99836.81;;;11.25;85.12
40730;BME280;26418;50.070;8.436;2023-11-21T10:38:53;99832.38;;;11.29;84.95
40730;BME280;26418;50.070;8.436;2023-11-21T10:41:20;99838.66;;;11.38;84.49
40730;BME280;26418;50.070;8.436;2023-11-21T10:43:46;99829.78;;;11.46;84.15
40730;BME280;26418;50.070;8.436;2023-11-21T10:46:11;99838.94;;;11.59;83.08
40730;BME280;26418;50.070;8.436;2023-11-21T10:48:37;99840.91;;;11.68;83.31
40730;BME280;26418;50.070;8.436;2023-11-21T10:51:07;99827.53;;;11.71;83.38
40730;BME280;26418;50.070;8.436;2023-11-21T10:53:33;99827.47;;;11.85;83.64
40730;BME280;26418;50.070;8.436;2023-11-21T10:56:06;99816.00;;;11.88;83.42
40730;BME280;26418;50.070;8.436;2023-11-21T10:58:35;99827.41;;;11.99;83.70
40730;BME280;26418;50.070;8.436;2023-11-21T11:01:05;99819.31;;;12.08;82.94
40730;BME280;26418;50.070;8.436;2023-11-21T11:03:32;99823.47;;;12.14;81.78
40730;BME280;26418;50.070;8.436;2023-11-21T11:05:59;99822.41;;;12.24;80.87
40730;BME280;26418;50.070;8.436;2023-11-21T11:08:26;99828.16;;;12.31;79.25
40730;BME280;26418;50.070;8.436;2023-11-21T11:10:53;99827.38;;;12.39;79.26
40730;BME280;26418;50.070;8.436;2023-11-21T11:13:19;99829.00;;;12.49;79.29
40730;BME280;26418;50.070;8.436;2023-11-21T11:15:47;99824.91;;;12.61;77.00
40730;BME280;26418;50.070;8.436;2023-11-21T11:18:13;99820.41;;;12.56;76.73
40730;BME280;26418;50.070;8.436;2023-11-21T11:20:40;99818.34;;;12.62;78.38
40730;BME280;26418;50.070;8.436;2023-11-21T11:31:37;99804.97;;;12.83;76.87
40730;BME280;26418;50.070;8.436;2023-11-21T11:34:20;99799.84;;;12.72;75.33
40730;BME280;26418;50.070;8.436;2023-11-21T11:37:08;99810.69;;;12.81;75.81
40730;BME280;26418;50.070;8.436;2023-11-21T11:39:39;99808.81;;;12.82;75.09
40730;BME280;26418;50.070;8.436;2023-11-21T11:42:12;99802.41;;;12.78;73.63
40730;BME280;26418;50.070;8.436;2023-11-21T11:47:26;99809.88;;;12.72;73.03
40730;BME280;26418;50.070;8.436;2023-11-21T11:52:55;99807.81;;;12.78;71.66
40730;BME280;26418;50.070;8.436;2023-11-21T11:55:37;99815.00;;;12.82;71.86
40730;BME280;26418;50.070;8.436;2023-11-21T11:58:05;99816.13;;;12.81;72.11
40730;BME280;26418;50.070;8.436;2023-11-21T12:00:35;99817.56;;;12.79;71.02
40730;BME280;26418;50.070;8.436;2023-11-21T12:03:07;99814.81;;;12.61;71.78
40730;BME280;26418;50.070;8.436;2023-11-21T12:05:35;99829.50;;;12.51;73.79
40730;BME280;26418;50.070;8.436;2023-11-21T12:08:04;99823.25;;;12.42;74.43
40730;BME280;26418;50.070;8.436;2023-11-21T12:10:33;99838.69;;;12.33;74.71
40730;BME280;26418;50.070;8.436;2023-11-21T12:13:02;99832.13;;;12.25;74.99
40730;BME280;26418;50.070;8.436;2023-11-21T12:15:28;99832.91;;;12.17;75.90
40730;BME280;26418;50.070;8.436;2023-11-21T12:17:57;99830.47;;;12.06;76.18
40730;BME280;26418;50.070;8.436;2023-11-21T12:20:26;99833.63;;;12.00;75.74
40730;BME280;26418;50.070;8.436;2023-11-21T12:22:54;99831.63;;;11.91;76.26
40730;BME280;26418;50.070;8.436;2023-11-21T12:25:22;99846.97;;;11.96;76.89
40730;BME280;26418;50.070;8.436;2023-11-21T12:27:50;99842.06;;;11.98;77.15
40730;BME280;26418;50.070;8.436;2023-11-21T12:30:18;99852.69;;;11.94;78.03
40730;BME280;26418;50.070;8.436;2023-11-21T12:32:47;99847.56;;;11.93;77.55
40730;BME280;26418;50.070;8.436;2023-11-21T12:35:13;99855.53;;;11.89;77.57
40730;BME280;26418;50.070;8.436;2023-11-21T12:37:40;99857.44;;;11.89;76.91
40730;BME280;26418;50.070;8.436;2023-11-21T12:40:09;99856.28;;;11.81;75.88
40730;BME280;26418;50.070;8.436;2023-11-21T12:42:39;99865.16;;;11.73;76.95
40730;BME280;26418;50.070;8.436;2023-11-21T12:47:46;99872.13;;;11.65;77.56
40730;BME280;26418;50.070;8.436;2023-11-21T12:50:13;99876.56;;;11.61;77.83
40730;BME280;26418;50.070;8.436;2023-11-21T12:52:46;99873.16;;;11.55;77.23
40730;BME280;26418;50.070;8.436;2023-11-21T12:55:18;99876.50;;;11.52;77.28
40730;BME280;26418;50.070;8.436;2023-11-21T12:57:51;99878.72;;;11.50;77.58
40730;BME280;26418;50.070;8.436;2023-11-21T13:00:18;99881.25;;;11.46;77.50
40730;BME280;26418;50.070;8.436;2023-11-21T13:02:53;99882.47;;;11.40;77.94
40730;BME280;26418;50.070;8.436;2023-11-21T13:05:37;99871.47;;;11.37;78.27
40730;BME280;26418;50.070;8.436;2023-11-21T13:08:16;99873.47;;;11.31;78.04
40730;BME280;26418;50.070;8.436;2023-11-21T13:10:45;99878.56;;;11.32;79.04
40730;BME280;26418;50.070;8.436;2023-11-21T13:13:13;99882.88;;;11.33;78.98
40730;BME280;26418;50.070;8.436;2023-11-21T13:15:52;99884.50;;;11.35;78.22
40730;BME280;26418;50.070;8.436;2023-11-21T13:18:18;99887.31;;;11.29;78.22